Formentera Direct — EAHQ — position and weather

sailwx.info

Track history (hours):
 
Tides and Currents Weather Stations Pressure Air Temp Water Temp Dewpoint Dewpoint Depression Visibility Wind Speed Wind Dir Waves Ship Positions

Formentera Direct

Last reported at 2018-Jun-21 09:57 UTC. Time now 2018-Jun-21 10:04 UTC.
Position N 38°55' E 001°26'.

Type: High speed craft. MMSI: 224101000.

Date/timePositionNaut miles runAvg speedWind from/ knotsBaromVisibWave heightAir tempDewpointWater temp
2018-Jun-21 09:57N 38°55' E 001°26'2 1.2
2018-Jun-21 08:19N 38°53' E 001°26'2 5.5
2018-Jun-21 07:58N 38°55' E 001°26'0 0.4
2018-Jun-21 07:29N 38°55' E 001°26'0 0.1
2018-Jun-21 06:38N 38°55' E 001°26'1010.3
2018-Jun-21 05:38N 38°44' E 001°25'419.2
2018-Jun-21 05:25N 38°49' E 001°25'614.0
2018-Jun-21 04:59N 38°55' E 001°26'0 0.0
2018-Jun-21 04:27N 38°55' E 001°26'0 0.0
2018-Jun-21 03:58N 38°55' E 001°26'0 0.0
2018-Jun-21 03:27N 38°55' E 001°26'0 0.0
2018-Jun-21 02:58N 38°55' E 001°26'0 0.0
2018-Jun-21 02:29N 38°55' E 001°26'0 0.0
2018-Jun-21 01:55N 38°55' E 001°26'0 0.0
2018-Jun-21 01:28N 38°55' E 001°26'0 0.0
2018-Jun-21 00:56N 38°55' E 001°26'0 0.0
2018-Jun-20 23:16N 38°55' E 001°26'0 0.0
2018-Jun-20 22:52N 38°55' E 001°26'0 0.0
2018-Jun-20 22:27N 38°55' E 001°26'0 0.0
2018-Jun-20 21:49N 38°55' E 001°26'0 0.0
2018-Jun-20 21:23N 38°55' E 001°26'0 0.0
2018-Jun-20 20:58N 38°55' E 001°26'0 0.0
2018-Jun-20 20:11N 38°55' E 001°26'0 0.0
2018-Jun-20 19:26N 38°55' E 001°26'0 0.0
2018-Jun-20 18:57N 38°55' E 001°26'3 2.1
2018-Jun-20 17:18N 38°51' E 001°26'1 0.9
2018-Jun-20 16:21N 38°51' E 001°26'0 0.0
2018-Jun-20 14:53N 38°51' E 001°26'4 2.7
2018-Jun-20 13:20N 38°55' E 001°26'6 2.8
2018-Jun-20 11:01N 38°48' E 001°25'519.6
2018-Jun-20 10:45N 38°53' E 001°27'1 4.3
2018-Jun-20 10:26N 38°55' E 001°26'0 0.0
2018-Jun-20 09:58N 38°55' E 001°26'2 1.5
2018-Jun-20 08:21N 38°52' E 001°26'2 7.0
2018-Jun-20 08:00N 38°55' E 001°26'2 0.6
2018-Jun-20 05:12N 38°53' E 001°26'2 6.4
2018-Jun-20 04:57N 38°55' E 001°26'0 0.0
2018-Jun-20 04:21N 38°55' E 001°26'0 0.0
2018-Jun-20 03:59N 38°55' E 001°26'0 0.0
2018-Jun-20 03:28N 38°55' E 001°26'0 0.0
2018-Jun-20 02:59N 38°55' E 001°26'0 0.0
2018-Jun-20 02:29N 38°55' E 001°26'0 0.0
2018-Jun-20 01:54N 38°55' E 001°26'0 0.0
2018-Jun-20 01:13N 38°55' E 001°26'0 0.0
2018-Jun-20 00:57N 38°55' E 001°26'0 0.0
2018-Jun-20 00:28N 38°55' E 001°26'0 0.0
2018-Jun-19 23:59N 38°55' E 001°26'0 0.0
2018-Jun-19 23:26N 38°55' E 001°26'0 0.0
2018-Jun-19 22:57N 38°55' E 001°26'0 0.0
2018-Jun-19 21:55N 38°55' E 001°26'0 0.0
2018-Jun-19 19:23N 38°55' E 001°26'0 0.0
2018-Jun-19 18:42N 38°55' E 001°26'1 3.8
2018-Jun-19 18:30N 38°54' E 001°27'7 6.3
2018-Jun-19 17:28N 38°48' E 001°25'714.1
2018-Jun-19 16:58N 38°55' E 001°26'6 3.2
2018-Jun-19 14:57N 38°48' E 001°25'613.6
2018-Jun-19 14:28N 38°55' E 001°26'0 0.3
2018-Jun-19 13:56N 38°55' E 001°26'0 0.0
2018-Jun-19 13:21N 38°55' E 001°26'1 3.2
2018-Jun-19 12:59N 38°54' E 001°27'5 2.8
2018-Jun-19 11:01N 38°48' E 001°25'018.6
2018-Jun-19 11:00N 38°49' E 001°25'612.3
2018-Jun-19 10:30N 38°55' E 001°26'0 0.0
2018-Jun-19 09:57N 38°55' E 001°26'4 9.4
2018-Jun-19 09:30N 38°51' E 001°26'2 2.3
2018-Jun-19 08:35N 38°49' E 001°25'217.1
2018-Jun-19 08:30N 38°50' E 001°26'5 8.8
2018-Jun-19 07:59N 38°55' E 001°26'0 0.5
2018-Jun-19 07:27N 38°55' E 001°26'0 0.0
2018-Jun-19 06:59N 38°55' E 001°26'3 5.8
2018-Jun-19 06:30N 38°52' E 001°26'4 3.6
2018-Jun-19 05:31N 38°49' E 001°25'117.7
2018-Jun-19 05:26N 38°50' E 001°26'510.3
2018-Jun-19 04:59N 38°55' E 001°26'0 0.0
2018-Jun-19 04:13N 38°55' E 001°26'0 0.0
2018-Jun-19 03:59N 38°55' E 001°26'0 0.0
2018-Jun-19 03:30N 38°55' E 001°26'0 0.0
2018-Jun-19 02:58N 38°55' E 001°26'0 0.0
2018-Jun-19 02:28N 38°55' E 001°26'0 0.0
2018-Jun-19 01:58N 38°55' E 001°26'0 0.0
2018-Jun-19 01:29N 38°55' E 001°26'0 0.0
2018-Jun-19 01:00N 38°55' E 001°26'0 0.0
2018-Jun-19 00:30N 38°55' E 001°26'0 0.0
2018-Jun-18 23:58N 38°55' E 001°26'0 0.0
2018-Jun-18 23:28N 38°55' E 001°26'0 0.0
2018-Jun-18 22:57N 38°55' E 001°26'0 0.0
2018-Jun-18 22:28N 38°55' E 001°26'0 0.0
2018-Jun-18 21:58N 38°55' E 001°26'0 0.0
2018-Jun-18 21:29N 38°55' E 001°26'0 0.0
2018-Jun-18 20:58N 38°55' E 001°26'0 0.0
2018-Jun-18 20:28N 38°55' E 001°26'0 0.0
2018-Jun-18 19:58N 38°55' E 001°26'0 0.0
2018-Jun-18 19:23N 38°55' E 001°26'0 0.0
2018-Jun-18 19:01N 38°55' E 001°26'1 2.7
2018-Jun-18 18:29N 38°53' E 001°27'0 0.3
2018-Jun-18 17:16N 38°53' E 001°26'2 5.4
2018-Jun-18 16:57N 38°55' E 001°26'6 2.8
2018-Jun-18 14:55N 38°49' E 001°25'6 8.9
2018-Jun-18 14:16N 38°55' E 001°26'0 0.4
2018-Jun-18 13:45N 38°55' E 001°26'0 0.1
2018-Jun-18 13:18N 38°55' E 001°26'0 0.0
2018-Jun-18 10:07N 38°55' E 001°26'0 0.0
2018-Jun-18 09:56N 38°55' E 001°26'3 2.0
2018-Jun-18 08:19N 38°52' E 001°26'3 3.6
2018-Jun-18 07:24N 38°55' E 001°26'0 0.0
2018-Jun-18 06:56N 38°55' E 001°26'1 0.8
2018-Jun-18 05:10N 38°53' E 001°27'1 8.4
2018-Jun-18 05:00N 38°55' E 001°26'0 0.0
2018-Jun-18 04:17N 38°55' E 001°26'0 0.0
2018-Jun-18 03:40N 38°55' E 001°26'0 0.0
2018-Jun-18 03:28N 38°55' E 001°26'0 0.0
2018-Jun-18 02:56N 38°55' E 001°26'0 0.0
2018-Jun-18 02:27N 38°55' E 001°26'0 0.0
2018-Jun-18 02:00N 38°55' E 001°26'0 0.0
2018-Jun-18 01:29N 38°55' E 001°26'0 0.0
2018-Jun-18 00:56N 38°55' E 001°26'0 0.0
2018-Jun-18 00:22N 38°55' E 001°26'0 0.0
2018-Jun-17 23:57N 38°55' E 001°26'0 0.0
2018-Jun-17 23:30N 38°55' E 001°26'0 0.0
2018-Jun-17 21:44N 38°55' E 001°26'0 0.0
2018-Jun-17 21:20N 38°55' E 001°26'0 0.0
2018-Jun-17 20:57N 38°55' E 001°26'0 0.0
2018-Jun-17 20:30N 38°55' E 001°26'0 0.0
2018-Jun-17 20:00N 38°55' E 001°26'0 0.0
2018-Jun-17 19:26N 38°55' E 001°26'0 0.0
2018-Jun-17 18:57N 38°55' E 001°26'11 8.2
2018-Jun-17 17:40N 38°44' E 001°25'317.3
2018-Jun-17 17:30N 38°47' E 001°25'1 0.4
2018-Jun-17 15:03N 38°46' E 001°25'122.0
2018-Jun-17 15:00N 38°47' E 001°24'1 0.5
2018-Jun-17 12:43N 38°48' E 001°25'418.5
2018-Jun-17 12:30N 38°44' E 001°25'0 0.0
2018-Jun-17 12:00N 38°44' E 001°25'0 0.0
2018-Jun-17 11:14N 38°44' E 001°25'3 1.2
2018-Jun-17 08:35N 38°47' E 001°24'3 1.1
2018-Jun-17 05:40N 38°44' E 001°25'316.9
2018-Jun-17 05:28N 38°47' E 001°25'8 0.7
2018-Jun-16 18:39N 38°55' E 001°27'5 3.7
2018-Jun-16 17:22N 38°50' E 001°25'5 6.0
2018-Jun-16 16:34N 38°55' E 001°27'11 2.2
2018-Jun-16 11:47N 38°44' E 001°25'0 0.0
2018-Jun-16 11:30N 38°44' E 001°25'5 9.1
2018-Jun-16 11:00N 38°49' E 001°25'5 2.0
2018-Jun-16 08:44N 38°44' E 001°25'415.7
2018-Jun-16 08:29N 38°48' E 001°25'7 0.5
2018-Jun-15 18:35N 38°55' E 001°27'114.7
2018-Jun-15 18:30N 38°53' E 001°27'918.7
2018-Jun-15 18:00N 38°44' E 001°25'3 6.1
2018-Jun-15 17:30N 38°47' E 001°25'1 0.3
2018-Jun-15 14:59N 38°48' E 001°25'7 0.4
2018-Jun-14 21:47N 38°55' E 001°26'0 0.0
2018-Jun-14 21:29N 38°55' E 001°26'0 0.0
2018-Jun-14 20:56N 38°55' E 001°26'0 0.0
2018-Jun-14 20:29N 38°55' E 001°26'0 0.0
2018-Jun-14 19:58N 38°55' E 001°26'0 0.0
2018-Jun-14 19:28N 38°55' E 001°26'0 0.0
2018-Jun-14 18:57N 38°55' E 001°26'1 2.0
2018-Jun-14 18:30N 38°54' E 001°27'4 3.5
2018-Jun-14 17:21N 38°50' E 001°25'512.7
2018-Jun-14 16:59N 38°55' E 001°26'4 6.5
2018-Jun-14 16:26N 38°51' E 001°26'3 1.9
2018-Jun-14 14:56N 38°48' E 001°25'614.5
2018-Jun-14 14:30N 38°55' E 001°26'0 0.4
2018-Jun-14 13:59N 38°55' E 001°26'0 0.0
2018-Jun-14 13:23N 38°55' E 001°26'1 3.7
2018-Jun-14 13:00N 38°53' E 001°27'0 0.2
2018-Jun-14 10:44N 38°54' E 001°26'1 2.3
2018-Jun-14 10:21N 38°55' E 001°26'0 0.0
2018-Jun-14 09:57N 38°55' E 001°26'3 4.9
2018-Jun-14 09:24N 38°52' E 001°26'4 4.3
2018-Jun-14 08:31N 38°48' E 001°25'119.0
2018-Jun-14 08:28N 38°49' E 001°25'511.6
2018-Jun-14 08:00N 38°55' E 001°26'0 0.4
2018-Jun-14 07:30N 38°55' E 001°26'0 0.0
2018-Jun-14 06:58N 38°55' E 001°26'2 3.1
2018-Jun-14 06:28N 38°53' E 001°26'1 0.8
2018-Jun-14 05:14N 38°52' E 001°26'210.1
2018-Jun-14 04:59N 38°55' E 001°26'0 0.0
2018-Jun-14 04:26N 38°55' E 001°26'0 0.0
2018-Jun-14 03:59N 38°55' E 001°26'0 0.0
2018-Jun-14 03:30N 38°55' E 001°26'0 0.0
2018-Jun-14 02:11N 38°55' E 001°26'0 0.0
2018-Jun-14 01:45N 38°55' E 001°26'0 0.0
2018-Jun-14 01:29N 38°55' E 001°26'0 0.0
2018-Jun-14 00:56N 38°55' E 001°26'0 0.0
2018-Jun-14 00:29N 38°55' E 001°26'0 0.0
2018-Jun-13 23:57N 38°55' E 001°26'0 0.0
2018-Jun-13 23:28N 38°55' E 001°26'0 0.0
2018-Jun-13 22:59N 38°55' E 001°26'0 0.0
2018-Jun-13 21:59N 38°55' E 001°26'0 0.0
2018-Jun-13 21:15N 38°55' E 001°26'0 0.0
2018-Jun-13 21:00N 38°55' E 001°26'0 0.0
2018-Jun-13 19:13N 38°55' E 001°26'0 0.4
2018-Jun-13 18:38N 38°55' E 001°26'211.4
2018-Jun-13 18:30N 38°53' E 001°27'4 1.3
2018-Jun-13 14:55N 38°49' E 001°25'610.7
2018-Jun-13 14:22N 38°55' E 001°26'0 0.3
2018-Jun-13 13:48N 38°55' E 001°26'0 0.0
2018-Jun-13 13:30N 38°55' E 001°26'2 0.8
2018-Jun-13 10:43N 38°52' E 001°26'2 4.3
2018-Jun-13 10:12N 38°55' E 001°26'0 0.0
2018-Jun-13 09:59N 38°55' E 001°26'4 2.5
2018-Jun-13 08:20N 38°51' E 001°26'4 9.8
2018-Jun-13 07:55N 38°55' E 001°26'0 0.4
2018-Jun-13 07:29N 38°55' E 001°26'0 0.0
2018-Jun-13 06:59N 38°55' E 001°26'0 0.1
2018-Jun-13 04:34N 38°55' E 001°26'0 0.0
2018-Jun-13 04:29N 38°55' E 001°26'0 0.0
2018-Jun-13 04:00N 38°55' E 001°26'0 0.0
2018-Jun-13 02:29N 38°55' E 001°26'0 0.0
2018-Jun-13 01:56N 38°55' E 001°26'0 0.0
2018-Jun-13 01:28N 38°55' E 001°26'0 0.0
2018-Jun-13 00:56N 38°55' E 001°26'0 0.0
2018-Jun-12 22:18N 38°55' E 001°26'0 0.0
2018-Jun-12 21:56N 38°55' E 001°26'0 0.0
2018-Jun-12 21:29N 38°55' E 001°26'0 0.0
2018-Jun-12 09:47N 38°55' E 001°26'4 3.0
2018-Jun-12 08:24N 38°51' E 001°26'4 3.7
2018-Jun-12 07:15N 38°55' E 001°26'0 0.0
2018-Jun-12 06:52N 38°55' E 001°26'7 5.3
2018-Jun-12 05:28N 38°48' E 001°25'714.6
2018-Jun-12 04:58N 38°55' E 001°26'0 0.0
2018-Jun-12 04:28N 38°55' E 001°26'0 0.0
2018-Jun-12 03:57N 38°55' E 001°26'0 0.0
2018-Jun-12 03:28N 38°55' E 001°26'0 0.0
2018-Jun-12 02:57N 38°55' E 001°26'0 0.0
2018-Jun-12 02:28N 38°55' E 001°26'0 0.0
2018-Jun-12 01:59N 38°55' E 001°26'0 0.0
2018-Jun-12 01:30N 38°55' E 001°26'0 0.0
2018-Jun-12 00:56N 38°55' E 001°26'0 0.0
2018-Jun-12 00:28N 38°55' E 001°26'0 0.0
2018-Jun-12 00:00N 38°55' E 001°26'0 0.0
2018-Jun-11 23:26N 38°55' E 001°26'0 0.0
2018-Jun-11 22:59N 38°55' E 001°26'0 0.0
2018-Jun-11 22:23N 38°55' E 001°26'0 0.0
2018-Jun-11 21:56N 38°55' E 001°26'0 0.0
2018-Jun-11 21:29N 38°55' E 001°26'0 0.0
2018-Jun-11 20:57N 38°55' E 001°26'0 0.0
2018-Jun-11 20:29N 38°55' E 001°26'0 0.0
2018-Jun-11 19:59N 38°55' E 001°26'0 0.0
2018-Jun-11 19:30N 38°55' E 001°26'0 0.0
2018-Jun-11 18:58N 38°55' E 001°26'11 8.4
2018-Jun-11 17:42N 38°44' E 001°25'317.9
2018-Jun-11 17:30N 38°47' E 001°25'714.7
2018-Jun-11 17:00N 38°55' E 001°26'1 2.0
2018-Jun-11 16:29N 38°54' E 001°27'6 3.8
2018-Jun-11 14:57N 38°48' E 001°25'7 5.3
2018-Jun-11 13:39N 38°55' E 001°26'0 0.0
2018-Jun-11 13:26N 38°55' E 001°26'3 1.3
2018-Jun-11 10:48N 38°51' E 001°26'3 9.3
2018-Jun-11 10:26N 38°55' E 001°26'  
Track history (hours):
 
Tides and Currents Weather Stations Pressure Air Temp Water Temp Dewpoint Dewpoint Depression Visibility Wind Speed Wind Dir Waves Ship Positions

Formentera Direct

Last reported at 2018-Jun-21 09:57 UTC. Time now 2018-Jun-21 10:04 UTC.
Position N 38°55' E 001°26'.

Type: High speed craft. MMSI: 224101000.

Date/timePositionNaut miles runAvg speedWind from/ knotsBaromVisibWave heightAir tempDewpointWater temp
2018-Jun-21 09:57N 38°55' E 001°26'2 1.2
2018-Jun-21 08:19N 38°53' E 001°26'2 5.5
2018-Jun-21 07:58N 38°55' E 001°26'0 0.4
2018-Jun-21 07:29N 38°55' E 001°26'0 0.1
2018-Jun-21 06:38N 38°55' E 001°26'1010.3
2018-Jun-21 05:38N 38°44' E 001°25'419.2
2018-Jun-21 05:25N 38°49' E 001°25'614.0
2018-Jun-21 04:59N 38°55' E 001°26'0 0.0
2018-Jun-21 04:27N 38°55' E 001°26'0 0.0
2018-Jun-21 03:58N 38°55' E 001°26'0 0.0
2018-Jun-21 03:27N 38°55' E 001°26'0 0.0
2018-Jun-21 02:58N 38°55' E 001°26'0 0.0
2018-Jun-21 02:29N 38°55' E 001°26'0 0.0
2018-Jun-21 01:55N 38°55' E 001°26'0 0.0
2018-Jun-21 01:28N 38°55' E 001°26'0 0.0
2018-Jun-21 00:56N 38°55' E 001°26'0 0.0
2018-Jun-20 23:16N 38°55' E 001°26'0 0.0
2018-Jun-20 22:52N 38°55' E 001°26'0 0.0
2018-Jun-20 22:27N 38°55' E 001°26'0 0.0
2018-Jun-20 21:49N 38°55' E 001°26'0 0.0
2018-Jun-20 21:23N 38°55' E 001°26'0 0.0
2018-Jun-20 20:58N 38°55' E 001°26'0 0.0
2018-Jun-20 20:11N 38°55' E 001°26'0 0.0
2018-Jun-20 19:26N 38°55' E 001°26'0 0.0
2018-Jun-20 18:57N 38°55' E 001°26'3 2.1
2018-Jun-20 17:18N 38°51' E 001°26'1 0.9
2018-Jun-20 16:21N 38°51' E 001°26'0 0.0
2018-Jun-20 14:53N 38°51' E 001°26'4 2.7
2018-Jun-20 13:20N 38°55' E 001°26'6 2.8
2018-Jun-20 11:01N 38°48' E 001°25'519.6
2018-Jun-20 10:45N 38°53' E 001°27'1 4.3
2018-Jun-20 10:26N 38°55' E 001°26'0 0.0
2018-Jun-20 09:58N 38°55' E 001°26'2 1.5
2018-Jun-20 08:21N 38°52' E 001°26'2 7.0
2018-Jun-20 08:00N 38°55' E 001°26'2 0.6
2018-Jun-20 05:12N 38°53' E 001°26'2 6.4
2018-Jun-20 04:57N 38°55' E 001°26'0 0.0
2018-Jun-20 04:21N 38°55' E 001°26'0 0.0
2018-Jun-20 03:59N 38°55' E 001°26'0 0.0
2018-Jun-20 03:28N 38°55' E 001°26'0 0.0
2018-Jun-20 02:59N 38°55' E 001°26'0 0.0
2018-Jun-20 02:29N 38°55' E 001°26'0 0.0
2018-Jun-20 01:54N 38°55' E 001°26'0 0.0
2018-Jun-20 01:13N 38°55' E 001°26'0 0.0
2018-Jun-20 00:57N 38°55' E 001°26'0 0.0
2018-Jun-20 00:28N 38°55' E 001°26'0 0.0
2018-Jun-19 23:59N 38°55' E 001°26'0 0.0
2018-Jun-19 23:26N 38°55' E 001°26'0 0.0
2018-Jun-19 22:57N 38°55' E 001°26'0 0.0
2018-Jun-19 21:55N 38°55' E 001°26'0 0.0
2018-Jun-19 19:23N 38°55' E 001°26'0 0.0
2018-Jun-19 18:42N 38°55' E 001°26'1 3.8
2018-Jun-19 18:30N 38°54' E 001°27'7 6.3
2018-Jun-19 17:28N 38°48' E 001°25'714.1
2018-Jun-19 16:58N 38°55' E 001°26'6 3.2
2018-Jun-19 14:57N 38°48' E 001°25'613.6
2018-Jun-19 14:28N 38°55' E 001°26'0 0.3
2018-Jun-19 13:56N 38°55' E 001°26'0 0.0
2018-Jun-19 13:21N 38°55' E 001°26'1 3.2
2018-Jun-19 12:59N 38°54' E 001°27'5 2.8
2018-Jun-19 11:01N 38°48' E 001°25'018.6
2018-Jun-19 11:00N 38°49' E 001°25'612.3
2018-Jun-19 10:30N 38°55' E 001°26'0 0.0
2018-Jun-19 09:57N 38°55' E 001°26'4 9.4
2018-Jun-19 09:30N 38°51' E 001°26'2 2.3
2018-Jun-19 08:35N 38°49' E 001°25'217.1
2018-Jun-19 08:30N 38°50' E 001°26'5 8.8
2018-Jun-19 07:59N 38°55' E 001°26'0 0.5
2018-Jun-19 07:27N 38°55' E 001°26'0 0.0
2018-Jun-19 06:59N 38°55' E 001°26'3 5.8
2018-Jun-19 06:30N 38°52' E 001°26'4 3.6
2018-Jun-19 05:31N 38°49' E 001°25'117.7
2018-Jun-19 05:26N 38°50' E 001°26'510.3
2018-Jun-19 04:59N 38°55' E 001°26'0 0.0
2018-Jun-19 04:13N 38°55' E 001°26'0 0.0
2018-Jun-19 03:59N 38°55' E 001°26'0 0.0
2018-Jun-19 03:30N 38°55' E 001°26'0 0.0
2018-Jun-19 02:58N 38°55' E 001°26'0 0.0
2018-Jun-19 02:28N 38°55' E 001°26'0 0.0
2018-Jun-19 01:58N 38°55' E 001°26'0 0.0
2018-Jun-19 01:29N 38°55' E 001°26'0 0.0
2018-Jun-19 01:00N 38°55' E 001°26'0 0.0
2018-Jun-19 00:30N 38°55' E 001°26'0 0.0
2018-Jun-18 23:58N 38°55' E 001°26'0 0.0
2018-Jun-18 23:28N 38°55' E 001°26'0 0.0
2018-Jun-18 22:57N 38°55' E 001°26'0 0.0
2018-Jun-18 22:28N 38°55' E 001°26'0 0.0
2018-Jun-18 21:58N 38°55' E 001°26'0 0.0
2018-Jun-18 21:29N 38°55' E 001°26'0 0.0
2018-Jun-18 20:58N 38°55' E 001°26'0 0.0
2018-Jun-18 20:28N 38°55' E 001°26'0 0.0
2018-Jun-18 19:58N 38°55' E 001°26'0 0.0
2018-Jun-18 19:23N 38°55' E 001°26'0 0.0
2018-Jun-18 19:01N 38°55' E 001°26'1 2.7
2018-Jun-18 18:29N 38°53' E 001°27'0 0.3
2018-Jun-18 17:16N 38°53' E 001°26'2 5.4
2018-Jun-18 16:57N 38°55' E 001°26'6 2.8
2018-Jun-18 14:55N 38°49' E 001°25'6 8.9
2018-Jun-18 14:16N 38°55' E 001°26'0 0.4
2018-Jun-18 13:45N 38°55' E 001°26'0 0.1
2018-Jun-18 13:18N 38°55' E 001°26'0 0.0
2018-Jun-18 10:07N 38°55' E 001°26'0 0.0
2018-Jun-18 09:56N 38°55' E 001°26'3 2.0
2018-Jun-18 08:19N 38°52' E 001°26'3 3.6
2018-Jun-18 07:24N 38°55' E 001°26'0 0.0
2018-Jun-18 06:56N 38°55' E 001°26'1 0.8
2018-Jun-18 05:10N 38°53' E 001°27'1 8.4
2018-Jun-18 05:00N 38°55' E 001°26'0 0.0
2018-Jun-18 04:17N 38°55' E 001°26'0 0.0
2018-Jun-18 03:40N 38°55' E 001°26'0 0.0
2018-Jun-18 03:28N 38°55' E 001°26'0 0.0
2018-Jun-18 02:56N 38°55' E 001°26'0 0.0
2018-Jun-18 02:27N 38°55' E 001°26'0 0.0
2018-Jun-18 02:00N 38°55' E 001°26'0 0.0
2018-Jun-18 01:29N 38°55' E 001°26'0 0.0
2018-Jun-18 00:56N 38°55' E 001°26'0 0.0
2018-Jun-18 00:22N 38°55' E 001°26'0 0.0
2018-Jun-17 23:57N 38°55' E 001°26'0 0.0
2018-Jun-17 23:30N 38°55' E 001°26'0 0.0
2018-Jun-17 21:44N 38°55' E 001°26'0 0.0
2018-Jun-17 21:20N 38°55' E 001°26'0 0.0
2018-Jun-17 20:57N 38°55' E 001°26'0 0.0
2018-Jun-17 20:30N 38°55' E 001°26'0 0.0
2018-Jun-17 20:00N 38°55' E 001°26'0 0.0
2018-Jun-17 19:26N 38°55' E 001°26'0 0.0
2018-Jun-17 18:57N 38°55' E 001°26'11 8.2
2018-Jun-17 17:40N 38°44' E 001°25'317.3
2018-Jun-17 17:30N 38°47' E 001°25'1 0.4
2018-Jun-17 15:03N 38°46' E 001°25'122.0
2018-Jun-17 15:00N 38°47' E 001°24'1 0.5
2018-Jun-17 12:43N 38°48' E 001°25'418.5
2018-Jun-17 12:30N 38°44' E 001°25'0 0.0
2018-Jun-17 12:00N 38°44' E 001°25'0 0.0
2018-Jun-17 11:14N 38°44' E 001°25'3 1.2
2018-Jun-17 08:35N 38°47' E 001°24'3 1.1
2018-Jun-17 05:40N 38°44' E 001°25'316.9
2018-Jun-17 05:28N 38°47' E 001°25'8 0.7
2018-Jun-16 18:39N 38°55' E 001°27'5 3.7
2018-Jun-16 17:22N 38°50' E 001°25'5 6.0
2018-Jun-16 16:34N 38°55' E 001°27'11 2.2
2018-Jun-16 11:47N 38°44' E 001°25'0 0.0
2018-Jun-16 11:30N 38°44' E 001°25'5 9.1
2018-Jun-16 11:00N 38°49' E 001°25'5 2.0
2018-Jun-16 08:44N 38°44' E 001°25'415.7
2018-Jun-16 08:29N 38°48' E 001°25'7 0.5
2018-Jun-15 18:35N 38°55' E 001°27'114.7
2018-Jun-15 18:30N 38°53' E 001°27'918.7
2018-Jun-15 18:00N 38°44' E 001°25'3 6.1
2018-Jun-15 17:30N 38°47' E 001°25'1 0.3
2018-Jun-15 14:59N 38°48' E 001°25'7 0.4
2018-Jun-14 21:47N 38°55' E 001°26'0 0.0
2018-Jun-14 21:29N 38°55' E 001°26'0 0.0
2018-Jun-14 20:56N 38°55' E 001°26'0 0.0
2018-Jun-14 20:29N 38°55' E 001°26'0 0.0
2018-Jun-14 19:58N 38°55' E 001°26'0 0.0
2018-Jun-14 19:28N 38°55' E 001°26'0 0.0
2018-Jun-14 18:57N 38°55' E 001°26'1 2.0
2018-Jun-14 18:30N 38°54' E 001°27'4 3.5
2018-Jun-14 17:21N 38°50' E 001°25'512.7
2018-Jun-14 16:59N 38°55' E 001°26'4 6.5
2018-Jun-14 16:26N 38°51' E 001°26'3 1.9
2018-Jun-14 14:56N 38°48' E 001°25'614.5
2018-Jun-14 14:30N 38°55' E 001°26'0 0.4
2018-Jun-14 13:59N 38°55' E 001°26'0 0.0
2018-Jun-14 13:23N 38°55' E 001°26'1 3.7
2018-Jun-14 13:00N 38°53' E 001°27'0 0.2
2018-Jun-14 10:44N 38°54' E 001°26'1 2.3
2018-Jun-14 10:21N 38°55' E 001°26'0 0.0
2018-Jun-14 09:57N 38°55' E 001°26'3 4.9
2018-Jun-14 09:24N 38°52' E 001°26'4 4.3
2018-Jun-14 08:31N 38°48' E 001°25'119.0
2018-Jun-14 08:28N 38°49' E 001°25'511.6
2018-Jun-14 08:00N 38°55' E 001°26'0 0.4
2018-Jun-14 07:30N 38°55' E 001°26'0 0.0
2018-Jun-14 06:58N 38°55' E 001°26'2 3.1
2018-Jun-14 06:28N 38°53' E 001°26'1 0.8
2018-Jun-14 05:14N 38°52' E 001°26'210.1
2018-Jun-14 04:59N 38°55' E 001°26'0 0.0
2018-Jun-14 04:26N 38°55' E 001°26'0 0.0
2018-Jun-14 03:59N 38°55' E 001°26'0 0.0
2018-Jun-14 03:30N 38°55' E 001°26'0 0.0
2018-Jun-14 02:11N 38°55' E 001°26'0 0.0
2018-Jun-14 01:45N 38°55' E 001°26'0 0.0
2018-Jun-14 01:29N 38°55' E 001°26'0 0.0
2018-Jun-14 00:56N 38°55' E 001°26'0 0.0
2018-Jun-14 00:29N 38°55' E 001°26'0 0.0
2018-Jun-13 23:57N 38°55' E 001°26'0 0.0
2018-Jun-13 23:28N 38°55' E 001°26'0 0.0
2018-Jun-13 22:59N 38°55' E 001°26'0 0.0
2018-Jun-13 21:59N 38°55' E 001°26'0 0.0
2018-Jun-13 21:15N 38°55' E 001°26'0 0.0
2018-Jun-13 21:00N 38°55' E 001°26'0 0.0
2018-Jun-13 19:13N 38°55' E 001°26'0 0.4
2018-Jun-13 18:38N 38°55' E 001°26'211.4
2018-Jun-13 18:30N 38°53' E 001°27'4 1.3
2018-Jun-13 14:55N 38°49' E 001°25'610.7
2018-Jun-13 14:22N 38°55' E 001°26'0 0.3
2018-Jun-13 13:48N 38°55' E 001°26'0 0.0
2018-Jun-13 13:30N 38°55' E 001°26'2 0.8
2018-Jun-13 10:43N 38°52' E 001°26'2 4.3
2018-Jun-13 10:12N 38°55' E 001°26'0 0.0
2018-Jun-13 09:59N 38°55' E 001°26'4 2.5
2018-Jun-13 08:20N 38°51' E 001°26'4 9.8
2018-Jun-13 07:55N 38°55' E 001°26'0 0.4
2018-Jun-13 07:29N 38°55' E 001°26'0 0.0
2018-Jun-13 06:59N 38°55' E 001°26'0 0.1
2018-Jun-13 04:34N 38°55' E 001°26'0 0.0
2018-Jun-13 04:29N 38°55' E 001°26'0 0.0
2018-Jun-13 04:00N 38°55' E 001°26'0 0.0
2018-Jun-13 02:29N 38°55' E 001°26'0 0.0
2018-Jun-13 01:56N 38°55' E 001°26'0 0.0
2018-Jun-13 01:28N 38°55' E 001°26'0 0.0
2018-Jun-13 00:56N 38°55' E 001°26'0 0.0
2018-Jun-12 22:18N 38°55' E 001°26'0 0.0
2018-Jun-12 21:56N 38°55' E 001°26'0 0.0
2018-Jun-12 21:29N 38°55' E 001°26'0 0.0
2018-Jun-12 09:47N 38°55' E 001°26'4 3.0
2018-Jun-12 08:24N 38°51' E 001°26'4 3.7
2018-Jun-12 07:15N 38°55' E 001°26'0 0.0
2018-Jun-12 06:52N 38°55' E 001°26'7 5.3
2018-Jun-12 05:28N 38°48' E 001°25'714.6
2018-Jun-12 04:58N 38°55' E 001°26'0 0.0
2018-Jun-12 04:28N 38°55' E 001°26'0 0.0
2018-Jun-12 03:57N 38°55' E 001°26'0 0.0
2018-Jun-12 03:28N 38°55' E 001°26'0 0.0
2018-Jun-12 02:57N 38°55' E 001°26'0 0.0
2018-Jun-12 02:28N 38°55' E 001°26'0 0.0
2018-Jun-12 01:59N 38°55' E 001°26'0 0.0
2018-Jun-12 01:30N 38°55' E 001°26'0 0.0
2018-Jun-12 00:56N 38°55' E 001°26'0 0.0
2018-Jun-12 00:28N 38°55' E 001°26'0 0.0
2018-Jun-12 00:00N 38°55' E 001°26'0 0.0
2018-Jun-11 23:26N 38°55' E 001°26'0 0.0
2018-Jun-11 22:59N 38°55' E 001°26'0 0.0
2018-Jun-11 22:23N 38°55' E 001°26'0 0.0
2018-Jun-11 21:56N 38°55' E 001°26'0 0.0
2018-Jun-11 21:29N 38°55' E 001°26'0 0.0
2018-Jun-11 20:57N 38°55' E 001°26'0 0.0
2018-Jun-11 20:29N 38°55' E 001°26'0 0.0
2018-Jun-11 19:59N 38°55' E 001°26'0 0.0
2018-Jun-11 19:30N 38°55' E 001°26'0 0.0
2018-Jun-11 18:58N 38°55' E 001°26'11 8.4
2018-Jun-11 17:42N 38°44' E 001°25'317.9
2018-Jun-11 17:30N 38°47' E 001°25'714.7
2018-Jun-11 17:00N 38°55' E 001°26'1 2.0
2018-Jun-11 16:29N 38°54' E 001°27'6 3.8
2018-Jun-11 14:57N 38°48' E 001°25'7 5.3
2018-Jun-11 13:39N 38°55' E 001°26'0 0.0
2018-Jun-11 13:26N 38°55' E 001°26'3 1.3
2018-Jun-11 10:48N 38°51' E 001°26'3 9.3
2018-Jun-11 10:26N 38°55' E 001°26'  

Dump ship's entire track history